createdAt,value
2022-09-27T00:00:58.858Z,1.6
2022-09-27T00:02:07.624Z,1.4
2022-09-27T00:03:15.863Z,1.4
2022-09-27T00:04:24.252Z,1.4
2022-09-27T00:05:32.878Z,1.3
2022-09-27T00:06:41.311Z,1.3
2022-09-27T00:07:49.690Z,1.3
2022-09-27T00:08:58.301Z,1.6
2022-09-27T00:10:06.735Z,1.6
2022-09-27T00:11:15.121Z,1.6
2022-09-27T00:12:23.719Z,1.4
2022-09-27T00:13:32.150Z,1.4
2022-09-27T00:14:40.544Z,1.4
2022-09-27T00:15:49.202Z,1.5
2022-09-27T00:16:57.573Z,1.5
2022-09-27T00:18:05.987Z,1.5
2022-09-27T00:19:14.745Z,1.2
2022-09-27T00:20:23.007Z,1.2
2022-09-27T00:21:31.416Z,1.2
2022-09-27T00:22:40.039Z,1.3
2022-09-27T00:23:48.421Z,1.3
2022-09-27T00:24:56.820Z,1.3
2022-09-27T00:26:05.425Z,0.9
2022-09-27T00:27:13.823Z,0.9
2022-09-27T00:28:22.235Z,0.9
2022-09-27T00:29:30.829Z,1
2022-09-27T00:30:39.278Z,1
2022-09-27T00:31:47.651Z,1
2022-09-27T00:32:56.245Z,0.9
2022-09-27T00:34:04.644Z,0.9
2022-09-27T00:35:13.067Z,0.9
2022-09-27T00:36:21.670Z,0.8
2022-09-27T00:37:30.051Z,0.8
2022-09-27T00:38:38.510Z,0.8
2022-09-27T00:39:47.085Z,1
2022-09-27T00:40:55.496Z,1
2022-09-27T00:42:03.885Z,1
2022-09-27T00:43:12.476Z,1
2022-09-27T00:44:20.868Z,1
2022-09-27T00:45:29.292Z,1
2022-09-27T00:46:37.919Z,1
2022-09-27T00:47:46.283Z,1
2022-09-27T00:48:54.765Z,1
2022-09-27T00:50:03.348Z,0.9
2022-09-27T00:51:11.748Z,0.9
2022-09-27T00:52:20.137Z,0.9
2022-09-27T00:53:28.756Z,0.8
2022-09-27T00:54:37.173Z,0.8
2022-09-27T00:55:45.561Z,0.8
2022-09-27T00:56:54.196Z,1
2022-09-27T00:58:02.596Z,1
2022-09-27T00:59:11.010Z,1
2022-09-27T01:00:19.594Z,0.8
2022-09-27T01:01:28.032Z,0.8
2022-09-27T01:02:36.530Z,0.8
2022-09-27T01:03:45.028Z,1
2022-09-27T01:04:53.407Z,1
2022-09-27T01:06:01.785Z,1
2022-09-27T01:07:10.391Z,0.9
2022-09-27T01:08:18.816Z,0.9
2022-09-27T01:09:27.212Z,0.9
2022-09-27T01:10:35.859Z,0.8
2022-09-27T01:11:44.238Z,0.8
2022-09-27T01:12:52.619Z,0.8
2022-09-27T01:14:01.204Z,0.8
2022-09-27T01:15:09.624Z,0.8
2022-09-27T01:16:18.057Z,0.8
2022-09-27T01:17:26.600Z,0.9
2022-09-27T01:18:34.996Z,0.9
2022-09-27T01:19:43.394Z,0.9
2022-09-27T01:20:52.028Z,0.8
2022-09-27T01:22:00.410Z,0.8
2022-09-27T01:23:08.806Z,0.8
2022-09-27T01:24:17.390Z,0.9
2022-09-27T01:25:25.807Z,0.9
2022-09-27T01:26:34.228Z,0.9
2022-09-27T01:27:42.801Z,0.8
2022-09-27T01:28:51.227Z,0.8
2022-09-27T01:29:59.620Z,0.8
2022-09-27T01:31:08.312Z,0.5
2022-09-27T01:32:16.618Z,0.5
2022-09-27T01:33:25.009Z,0.5
2022-09-27T01:34:33.654Z,0.7
2022-09-27T01:35:42.031Z,0.7
2022-09-27T01:36:50.448Z,0.7
2022-09-27T01:37:59.074Z,0.7
2022-09-27T01:39:07.445Z,0.7
2022-09-27T01:40:15.862Z,0.7
2022-09-27T01:41:24.477Z,0.5
2022-09-27T01:42:32.900Z,0.5
2022-09-27T01:43:41.262Z,0.5
2022-09-27T01:44:49.901Z,0.5
2022-09-27T01:45:58.312Z,0.5
2022-09-27T01:47:06.678Z,0.5
2022-09-27T01:48:15.293Z,0.6
2022-09-27T01:49:23.671Z,0.6
2022-09-27T01:50:32.102Z,0.6
2022-09-27T01:51:40.689Z,0.8
2022-09-27T01:52:49.116Z,0.8
2022-09-27T01:53:57.519Z,0.8
2022-09-27T01:55:06.133Z,0.5
2022-09-27T01:56:14.555Z,0.5
2022-09-27T01:57:22.969Z,0.5
2022-09-27T01:58:31.623Z,0.5
2022-09-27T01:59:39.986Z,0.5
2022-09-27T02:00:48.386Z,0.5
2022-09-27T02:01:57.071Z,0.4
2022-09-27T02:03:05.457Z,0.4
2022-09-27T02:04:13.847Z,0.4
2022-09-27T02:05:22.443Z,0.3
2022-09-27T02:06:30.824Z,0.3
2022-09-27T02:07:39.221Z,0.3
2022-09-27T02:08:47.844Z,0.6
2022-09-27T02:09:56.236Z,0.6
2022-09-27T02:11:04.646Z,0.6
2022-09-27T02:12:13.247Z,0.6
2022-09-27T02:13:21.641Z,0.6
2022-09-27T02:14:30.069Z,0.6
2022-09-27T02:15:38.678Z,0.3
2022-09-27T02:16:47.100Z,0.3
2022-09-27T02:17:55.476Z,0.3
2022-09-27T02:19:04.100Z,0.4
2022-09-27T02:20:12.495Z,0.4
2022-09-27T02:21:20.894Z,0.4
2022-09-27T02:22:29.542Z,0.8
2022-09-27T02:23:37.951Z,0.8
2022-09-27T02:24:46.355Z,0.8
2022-09-27T02:25:54.963Z,0.3
2022-09-27T02:27:03.368Z,0.3
2022-09-27T02:28:11.761Z,0.3
2022-09-27T02:29:20.385Z,0.4
2022-09-27T02:30:28.812Z,0.4
2022-09-27T02:31:37.171Z,0.4
2022-09-27T02:32:45.777Z,0.4
2022-09-27T02:33:54.156Z,0.4
2022-09-27T02:35:02.570Z,0.4
2022-09-27T02:36:11.215Z,0.4
2022-09-27T02:37:19.599Z,0.4
2022-09-27T02:38:28.017Z,0.4
2022-09-27T02:39:36.641Z,0.4
2022-09-27T02:40:45.108Z,0.4
2022-09-27T02:41:53.427Z,0.4
2022-09-27T02:43:02.031Z,0.6
2022-09-27T02:44:10.438Z,0.6
2022-09-27T02:45:18.827Z,0.6
2022-09-27T02:46:27.513Z,0.4
2022-09-27T02:47:35.835Z,0.4
2022-09-27T02:48:44.223Z,0.4
2022-09-27T02:49:52.832Z,0.4
2022-09-27T02:51:01.220Z,0.4
2022-09-27T02:52:09.616Z,0.4
2022-09-27T02:53:18.221Z,0.3
2022-09-27T02:54:26.610Z,0.3
2022-09-27T02:55:35.036Z,0.3
2022-09-27T02:56:43.620Z,0.4
2022-09-27T02:57:52.022Z,0.4
2022-09-27T02:59:00.406Z,0.4
2022-09-27T03:00:09.016Z,0.3
2022-09-27T03:01:17.447Z,0.3
2022-09-27T03:02:25.888Z,0.3
2022-09-27T03:03:34.449Z,0.3
2022-09-27T03:04:42.909Z,0.3
2022-09-27T03:05:51.311Z,0.3
2022-09-27T03:06:59.901Z,0.3
2022-09-27T03:08:08.296Z,0.3
2022-09-27T03:09:16.768Z,0.3
2022-09-27T03:10:25.346Z,0.4
2022-09-27T03:11:33.725Z,0.4
2022-09-27T03:12:42.137Z,0.4
2022-09-27T03:14:07.676Z,0.4
2022-09-27T03:14:59.129Z,0.4
2022-09-27T03:16:07.528Z,0.4
2022-09-27T03:17:16.130Z,0.5
2022-09-27T03:18:24.583Z,0.5
2022-09-27T03:19:32.947Z,0.5
2022-09-27T03:20:41.554Z,0.4
2022-09-27T03:21:49.955Z,0.4
2022-09-27T03:22:58.322Z,0.4
2022-09-27T03:24:06.959Z,0.4
2022-09-27T03:25:15.354Z,0.4
2022-09-27T03:26:23.766Z,0.4
2022-09-27T03:27:32.377Z,0.3
2022-09-27T03:28:40.781Z,0.3
2022-09-27T03:29:49.171Z,0.3
2022-09-27T03:30:57.828Z,0.4
2022-09-27T03:32:06.177Z,0.4
2022-09-27T03:33:14.576Z,0.4
2022-09-27T03:34:23.213Z,0.3
2022-09-27T03:35:31.574Z,0.3
2022-09-27T03:36:39.977Z,0.3
2022-09-27T03:37:48.574Z,0.3
2022-09-27T03:38:56.999Z,0.3
2022-09-27T03:40:05.398Z,0.3
2022-09-27T03:41:13.991Z,0.4
2022-09-27T03:42:22.408Z,0.4
2022-09-27T03:43:30.813Z,0.4
2022-09-27T03:44:39.418Z,0.4
2022-09-27T03:45:47.894Z,0.4
2022-09-27T03:46:56.226Z,0.4
2022-09-27T03:48:04.861Z,0.4
2022-09-27T03:49:13.284Z,0.4
2022-09-27T03:50:21.675Z,0.4
2022-09-27T03:51:30.263Z,0.3
2022-09-27T03:52:38.685Z,0.3
2022-09-27T03:53:47.101Z,0.3
2022-09-27T03:54:59.802Z,0.5
2022-09-27T03:56:04.098Z,0.5
2022-09-27T03:57:12.510Z,0.5
2022-09-27T03:58:21.111Z,12.1
2022-09-27T03:59:29.503Z,12.1
2022-09-27T04:00:37.911Z,12.1
2022-09-27T04:01:46.562Z,1.3
2022-09-27T04:02:55.009Z,1.3
2022-09-27T04:04:05.533Z,1.3
2022-09-27T04:05:11.888Z,1.4
2022-09-27T04:06:20.307Z,1.4
2022-09-27T04:07:28.720Z,1.4
2022-09-27T04:08:37.333Z,0.9
2022-09-27T04:09:45.731Z,0.9
2022-09-27T04:10:54.161Z,0.9
2022-09-27T04:12:02.735Z,2.5
2022-09-27T04:13:11.169Z,2.5
2022-09-27T04:14:19.555Z,2.5
2022-09-27T04:15:28.151Z,3.4
2022-09-27T04:16:36.698Z,3.4
2022-09-27T04:17:44.948Z,3.4
2022-09-27T04:18:53.565Z,4.5
2022-09-27T04:20:01.979Z,4.5
2022-09-27T04:21:10.356Z,4.5
2022-09-27T04:22:18.989Z,1.1
2022-09-27T04:23:29.911Z,1.1
2022-09-27T04:24:35.792Z,1.1
2022-09-27T04:25:44.404Z,0.6
2022-09-27T04:26:52.780Z,0.6
2022-09-27T04:28:01.209Z,0.6
2022-09-27T04:29:09.825Z,0.4
2022-09-27T04:30:18.192Z,0.4
2022-09-27T04:31:26.729Z,0.4
2022-09-27T04:32:35.243Z,0.4
2022-09-27T04:33:43.631Z,0.4
2022-09-27T04:34:52.030Z,0.4
2022-09-27T04:36:00.639Z,0.4
2022-09-27T04:37:09.017Z,0.4
2022-09-27T04:38:17.538Z,0.4
2022-09-27T04:39:26.110Z,0.4
2022-09-27T04:40:34.545Z,0.4
2022-09-27T04:41:42.962Z,0.4
2022-09-27T04:42:51.596Z,0.6
2022-09-27T04:44:00.004Z,0.6
2022-09-27T04:45:08.390Z,0.6
2022-09-27T04:46:17.163Z,1
2022-09-27T04:47:25.516Z,1
2022-09-27T04:48:33.925Z,1
2022-09-27T04:49:42.545Z,3.9
2022-09-27T04:50:50.917Z,3.9
2022-09-27T04:51:59.328Z,3.9
2022-09-27T04:53:07.970Z,0.7
2022-09-27T04:54:16.407Z,0.7
2022-09-27T04:55:24.755Z,0.7
2022-09-27T04:56:33.378Z,0.5
2022-09-27T04:57:41.878Z,0.5
2022-09-27T04:58:50.211Z,0.5
2022-09-27T04:59:58.860Z,13.5
2022-09-27T05:01:07.317Z,13.5
2022-09-27T05:02:15.715Z,13.5
2022-09-27T05:03:24.306Z,30.1
2022-09-27T05:04:32.663Z,30.1
2022-09-27T05:05:41.041Z,30.1
2022-09-27T05:06:52.522Z,50.700001
2022-09-27T05:07:58.054Z,50.700001
2022-09-27T05:09:06.485Z,50.700001
2022-09-27T05:10:15.111Z,1
2022-09-27T05:11:23.473Z,1
2022-09-27T05:12:31.919Z,1
2022-09-27T05:13:40.488Z,2
2022-09-27T05:14:48.851Z,2
2022-09-27T05:15:57.258Z,2
2022-09-27T05:17:05.923Z,3.3
2022-09-27T05:18:14.355Z,3.3
2022-09-27T05:19:22.715Z,3.3
2022-09-27T05:20:31.397Z,30.700001
2022-09-27T05:21:39.798Z,30.700001
2022-09-27T05:22:48.214Z,30.700001
2022-09-27T05:23:56.828Z,2.8
2022-09-27T05:25:05.209Z,2.8
2022-09-27T05:26:13.656Z,2.8
2022-09-27T05:27:22.245Z,3.7
2022-09-27T05:28:30.652Z,3.7
2022-09-27T05:29:39.094Z,3.7
2022-09-27T05:30:47.715Z,1.7
2022-09-27T05:31:56.129Z,1.7
2022-09-27T05:33:04.516Z,1.7
2022-09-27T05:34:13.119Z,0.6
2022-09-27T05:35:21.529Z,0.6
2022-09-27T05:36:29.918Z,0.6
2022-09-27T05:37:38.537Z,0.4
2022-09-27T05:38:46.937Z,0.4
2022-09-27T05:39:55.330Z,0.4
2022-09-27T05:41:03.994Z,0.5
2022-09-27T05:42:12.387Z,0.5
2022-09-27T05:43:20.797Z,0.5
2022-09-27T05:44:29.400Z,0.9
2022-09-27T05:45:37.935Z,0.9
2022-09-27T05:46:46.214Z,0.9
2022-09-27T05:47:54.882Z,1.7
2022-09-27T05:49:03.272Z,1.7
2022-09-27T05:50:11.735Z,1.7
2022-09-27T05:51:20.303Z,0.9
2022-09-27T05:52:28.715Z,0.9
2022-09-27T05:53:37.109Z,0.9
2022-09-27T05:54:45.712Z,12
2022-09-27T05:55:54.128Z,12
2022-09-27T05:57:02.567Z,12
2022-09-27T05:58:11.197Z,0.8
2022-09-27T05:59:19.607Z,0.8
2022-09-27T06:00:28.039Z,0.8
2022-09-27T06:01:36.614Z,1.1
2022-09-27T06:02:45.050Z,1.1
2022-09-27T06:03:53.391Z,1.1
2022-09-27T06:05:02.063Z,0.5
2022-09-27T06:06:10.471Z,0.5
2022-09-27T06:07:18.883Z,0.5
2022-09-27T06:08:27.478Z,0.6
2022-09-27T06:09:35.869Z,0.6
2022-09-27T06:10:44.294Z,0.6
2022-09-27T06:11:52.912Z,0.8
2022-09-27T06:13:01.355Z,0.8
2022-09-27T06:14:09.804Z,0.8
2022-09-27T06:15:18.370Z,1.4
2022-09-27T06:16:26.870Z,1.4
2022-09-27T06:17:35.213Z,1.4
2022-09-27T06:18:43.821Z,4.4
2022-09-27T06:19:52.218Z,4.4
2022-09-27T06:21:00.648Z,4.4
2022-09-27T06:22:09.223Z,0.6
2022-09-27T06:23:17.651Z,0.6
2022-09-27T06:24:26.037Z,0.6
2022-09-27T06:25:34.668Z,1.8
2022-09-27T06:26:43.060Z,1.8
2022-09-27T06:27:51.463Z,1.8
2022-09-27T06:29:00.066Z,0.8
2022-09-27T06:30:08.485Z,0.8
2022-09-27T06:31:16.928Z,0.8
2022-09-27T06:32:25.481Z,4.6
2022-09-27T06:33:33.871Z,4.6
2022-09-27T06:34:42.287Z,4.6
2022-09-27T06:35:50.915Z,1.2
2022-09-27T06:36:59.303Z,1.2
2022-09-27T06:38:07.710Z,1.2
2022-09-27T06:39:16.515Z,0.9
2022-09-27T06:40:24.754Z,0.9
2022-09-27T06:41:33.121Z,0.9
2022-09-27T06:42:41.759Z,1.2
2022-09-27T06:43:50.164Z,1.2
2022-09-27T06:44:58.571Z,1.2
2022-09-27T06:46:07.334Z,1.5
2022-09-27T06:47:15.566Z,1.5
2022-09-27T06:48:23.955Z,1.5
2022-09-27T06:49:32.574Z,1
2022-09-27T06:50:40.954Z,1
2022-09-27T06:51:49.366Z,1
2022-09-27T06:52:58.009Z,0.5
2022-09-27T06:54:06.380Z,0.5
2022-09-27T06:55:14.785Z,0.5
2022-09-27T06:56:23.439Z,1.1
2022-09-27T06:57:31.832Z,1.1
2022-09-27T06:58:40.247Z,1.1
2022-09-27T06:59:48.876Z,2.5
2022-09-27T07:00:57.376Z,2.5
2022-09-27T07:02:05.809Z,2.5
2022-09-27T07:03:14.383Z,4.8
2022-09-27T07:04:22.759Z,4.8
2022-09-27T07:05:31.189Z,4.8
2022-09-27T07:06:39.816Z,0.6
2022-09-27T07:07:48.183Z,0.6
2022-09-27T07:08:56.592Z,0.6
2022-09-27T07:10:09.659Z,0.6
2022-09-27T07:11:13.588Z,0.6
2022-09-27T07:12:22.006Z,0.6
2022-09-27T07:13:30.649Z,0.7
2022-09-27T07:14:39.045Z,0.7
2022-09-27T07:15:47.422Z,0.7
2022-09-27T07:16:56.073Z,0.7
2022-09-27T07:18:04.456Z,0.7
2022-09-27T07:19:12.890Z,0.7
2022-09-27T07:20:21.449Z,6.5
2022-09-27T07:21:29.843Z,6.5
2022-09-27T07:22:38.265Z,6.5
2022-09-27T07:23:46.904Z,3
2022-09-27T07:24:55.253Z,3
2022-09-27T07:26:03.637Z,3
2022-09-27T07:27:12.253Z,2.3
2022-09-27T07:28:21.929Z,2.3
2022-09-27T07:29:29.055Z,2.3
2022-09-27T07:30:37.717Z,2
2022-09-27T07:31:46.054Z,2
2022-09-27T07:32:54.469Z,2
2022-09-27T07:34:03.087Z,2.5
2022-09-27T07:35:11.529Z,2.5
2022-09-27T07:36:19.898Z,2.5
2022-09-27T07:37:28.517Z,1.1
2022-09-27T07:38:36.929Z,1.1
2022-09-27T07:39:45.356Z,1.1
2022-09-27T07:40:54.009Z,3.9
2022-09-27T07:42:02.355Z,3.9
2022-09-27T07:43:10.774Z,3.9
2022-09-27T07:44:19.348Z,0.9
2022-09-27T07:45:27.757Z,0.9
2022-09-27T07:46:36.213Z,0.9
2022-09-27T07:47:44.804Z,1
2022-09-27T07:48:53.194Z,1
2022-09-27T07:50:01.643Z,1
2022-09-27T07:51:10.202Z,1.2
2022-09-27T07:52:18.616Z,1.2
2022-09-27T07:53:27.037Z,1.2
2022-09-27T07:54:35.628Z,1.2
2022-09-27T07:55:44.051Z,1.2
2022-09-27T07:56:52.475Z,1.2
2022-09-27T07:58:01.094Z,1.7
2022-09-27T07:59:09.514Z,1.7
2022-09-27T08:00:17.886Z,1.7
2022-09-27T08:01:26.521Z,0.6
2022-09-27T08:02:34.926Z,0.6
2022-09-27T08:03:43.273Z,0.6
2022-09-27T08:04:51.896Z,0.3
2022-09-27T08:06:00.317Z,0.3
2022-09-27T08:07:11.270Z,0.3
2022-09-27T08:08:17.325Z,4.4
2022-09-27T08:09:25.712Z,4.4
2022-09-27T08:10:34.107Z,4.4
2022-09-27T08:11:42.767Z,0.5
2022-09-27T08:12:51.150Z,0.5
2022-09-27T08:13:59.531Z,0.5
2022-09-27T08:15:08.128Z,0.5
2022-09-27T08:16:16.611Z,0.5
2022-09-27T08:17:24.940Z,0.5
2022-09-27T08:18:33.548Z,0.3
2022-09-27T08:19:41.953Z,0.3
2022-09-27T08:20:50.378Z,0.3
2022-09-27T08:21:59.151Z,0.4
2022-09-27T08:23:07.407Z,0.4
2022-09-27T08:24:15.823Z,0.4
2022-09-27T08:25:24.432Z,0.7
2022-09-27T08:26:32.832Z,0.7
2022-09-27T08:27:41.224Z,0.7
2022-09-27T08:28:49.847Z,0.4
2022-09-27T08:29:58.240Z,0.4
2022-09-27T08:31:06.661Z,0.4
2022-09-27T08:32:18.296Z,0.4
2022-09-27T08:33:23.673Z,0.4
2022-09-27T08:34:32.061Z,0.4
2022-09-27T08:35:40.713Z,0.3
2022-09-27T08:36:49.083Z,0.3
2022-09-27T08:37:57.557Z,0.3
2022-09-27T08:39:06.115Z,0.4
2022-09-27T08:40:14.567Z,0.4
2022-09-27T08:41:22.975Z,0.4
2022-09-27T08:42:31.567Z,0.9
2022-09-27T08:43:40.005Z,0.9
2022-09-27T08:44:48.406Z,0.9
2022-09-27T08:45:57.096Z,0.2
2022-09-27T08:47:05.444Z,0.2
2022-09-27T08:48:13.837Z,0.2
2022-09-27T08:49:22.436Z,0.2
2022-09-27T08:50:30.849Z,0.2
2022-09-27T08:51:39.227Z,0.2
2022-09-27T08:52:47.829Z,0.4
2022-09-27T08:53:56.253Z,0.4
2022-09-27T08:55:04.627Z,0.4
2022-09-27T08:56:13.233Z,0.2
2022-09-27T08:57:21.624Z,0.2
2022-09-27T08:58:30.031Z,0.2
2022-09-27T08:59:38.649Z,0.3
2022-09-27T09:00:47.102Z,0.3
2022-09-27T09:01:55.509Z,0.3
2022-09-27T09:03:04.133Z,0.2
2022-09-27T09:04:12.834Z,0.2
2022-09-27T09:05:20.912Z,0.2
2022-09-27T09:06:29.540Z,0.3
2022-09-27T09:07:37.922Z,0.3
2022-09-27T09:08:50.782Z,0.3
2022-09-27T09:09:55.067Z,0.2
2022-09-27T09:11:03.438Z,0.2
2022-09-27T09:12:11.845Z,0.2
2022-09-27T09:13:20.441Z,0.2
2022-09-27T09:14:28.843Z,0.2
2022-09-27T09:15:37.249Z,0.2
2022-09-27T09:16:45.903Z,0.3
2022-09-27T09:17:54.260Z,0.3
2022-09-27T09:19:02.655Z,0.3
2022-09-27T09:20:16.263Z,0.2
2022-09-27T09:21:19.653Z,0.2
2022-09-27T09:22:28.066Z,0.2
2022-09-27T09:23:36.686Z,0.3
2022-09-27T09:24:45.085Z,0.3
2022-09-27T09:25:53.512Z,0.3
2022-09-27T09:27:02.084Z,1.2
2022-09-27T09:28:10.507Z,1.2
2022-09-27T09:29:18.906Z,1.2
2022-09-27T09:30:27.525Z,1.1
2022-09-27T09:31:35.936Z,1.1
2022-09-27T09:32:44.303Z,1.1
2022-09-27T09:33:52.883Z,1.2
2022-09-27T09:35:01.394Z,1.2
2022-09-27T09:36:09.752Z,1.2
2022-09-27T09:37:18.380Z,1.7
2022-09-27T09:38:26.760Z,1.7
2022-09-27T09:39:35.199Z,1.7
2022-09-27T09:40:43.847Z,1.3
2022-09-27T09:41:52.248Z,1.3
2022-09-27T09:43:00.619Z,1.3
2022-09-27T09:44:09.276Z,3.4
2022-09-27T09:45:17.639Z,3.4
2022-09-27T09:46:26.061Z,3.4
2022-09-27T09:47:34.665Z,1.6
2022-09-27T09:48:43.059Z,1.6
2022-09-27T09:49:51.423Z,1.6
2022-09-27T09:50:59.984Z,4
2022-09-27T09:52:09.215Z,4
2022-09-27T09:53:16.707Z,4
2022-09-27T09:54:25.331Z,2.4
2022-09-27T09:55:33.694Z,2.4
2022-09-27T09:56:42.126Z,2.4
2022-09-27T09:57:50.809Z,1.5
2022-09-27T09:58:59.135Z,1.5
2022-09-27T10:00:07.516Z,1.5
2022-09-27T10:01:16.161Z,0.9
2022-09-27T10:02:24.604Z,0.9
2022-09-27T10:03:32.951Z,0.9
2022-09-27T10:04:41.639Z,2.2
2022-09-27T10:05:50.017Z,2.2
2022-09-27T10:06:58.464Z,2.2
2022-09-27T10:08:07.057Z,0.9
2022-09-27T10:09:15.531Z,0.9
2022-09-27T10:10:23.914Z,0.9
2022-09-27T10:11:32.507Z,0.6
2022-09-27T10:12:40.914Z,0.6
2022-09-27T10:13:49.383Z,0.6
2022-09-27T10:14:57.991Z,0.5
2022-09-27T10:16:06.421Z,0.5
2022-09-27T10:17:14.788Z,0.5
2022-09-27T10:18:23.403Z,0.5
2022-09-27T10:19:31.823Z,0.5
2022-09-27T10:20:40.197Z,0.5
2022-09-27T10:21:48.839Z,1.7
2022-09-27T10:22:57.228Z,1.7
2022-09-27T10:24:05.633Z,1.7
2022-09-27T10:25:14.232Z,0.7
2022-09-27T10:26:22.632Z,0.7
2022-09-27T10:27:31.036Z,0.7
2022-09-27T10:28:39.675Z,0.8
2022-09-27T10:29:48.172Z,0.8
2022-09-27T10:30:56.464Z,0.8
2022-09-27T10:32:05.059Z,0.6
2022-09-27T10:33:13.459Z,0.6
2022-09-27T10:34:21.890Z,0.6
2022-09-27T10:35:30.464Z,0.8
2022-09-27T10:36:39.748Z,0.8
2022-09-27T10:37:48.159Z,0.8
2022-09-27T10:38:56.814Z,0.7
2022-09-27T10:40:05.225Z,0.7
2022-09-27T10:41:13.598Z,0.7
2022-09-27T10:42:22.175Z,0.7
2022-09-27T10:43:30.609Z,0.7
2022-09-27T10:44:39.001Z,0.7
2022-09-27T10:45:47.838Z,0.9
2022-09-27T10:46:56.140Z,0.9
2022-09-27T10:48:04.539Z,0.9
2022-09-27T10:49:13.195Z,0.4
2022-09-27T10:50:39.125Z,0.4
2022-09-27T10:51:30.047Z,0.4
2022-09-27T10:52:38.663Z,0.6
2022-09-27T10:53:47.081Z,0.6
2022-09-27T10:54:55.499Z,0.6
2022-09-27T10:56:04.083Z,0.8
2022-09-27T10:57:12.462Z,0.8
2022-09-27T10:58:20.876Z,0.8
2022-09-27T10:59:29.576Z,0.5
2022-09-27T11:00:37.993Z,0.5
2022-09-27T11:01:46.464Z,0.5
2022-09-27T11:02:55.005Z,0.6
2022-09-27T11:04:03.408Z,0.6
2022-09-27T11:05:14.945Z,0.6
2022-09-27T11:06:20.438Z,0.7
2022-09-27T11:07:28.866Z,0.7
2022-09-27T11:08:37.317Z,0.7
2022-09-27T11:09:45.890Z,0.7
2022-09-27T11:10:54.304Z,0.7
2022-09-27T11:12:02.730Z,0.7
2022-09-27T11:13:11.356Z,0.7
2022-09-27T11:14:19.728Z,0.7
2022-09-27T11:15:28.143Z,0.7
2022-09-27T11:16:36.779Z,1.1
2022-09-27T11:17:45.192Z,1.1
2022-09-27T11:18:53.576Z,1.1
2022-09-27T11:20:02.162Z,1.1
2022-09-27T11:21:10.548Z,1.1
2022-09-27T11:22:19.001Z,1.1
2022-09-27T11:23:27.574Z,0.4
2022-09-27T11:24:35.970Z,0.4
2022-09-27T11:25:44.358Z,0.4
2022-09-27T11:26:52.948Z,1.6
2022-09-27T11:28:01.353Z,1.6
2022-09-27T11:29:09.816Z,1.6
2022-09-27T11:30:18.476Z,0.8
2022-09-27T11:31:26.827Z,0.8
2022-09-27T11:32:35.206Z,0.8
2022-09-27T11:33:43.848Z,0.7
2022-09-27T11:34:52.213Z,0.7
2022-09-27T11:36:00.617Z,0.7
2022-09-27T11:37:09.233Z,0.8
2022-09-27T11:38:29.802Z,0.8
2022-09-27T11:39:26.050Z,0.8
2022-09-27T11:40:34.727Z,0.7
2022-09-27T11:41:43.052Z,0.7
2022-09-27T11:42:51.457Z,0.7
2022-09-27T11:44:00.107Z,0.6
2022-09-27T11:45:30.594Z,0.6
2022-09-27T11:46:22.366Z,0.6
2022-09-27T11:47:25.564Z,1.3
2022-09-27T11:48:33.955Z,1.3
2022-09-27T11:49:42.385Z,1.3
2022-09-27T11:50:50.981Z,1.2
2022-09-27T11:51:59.379Z,1.2
2022-09-27T11:53:07.844Z,1.2
2022-09-27T11:54:16.526Z,1.2
2022-09-27T11:55:24.802Z,1.2
2022-09-27T11:56:33.202Z,1.2
2022-09-27T11:57:41.811Z,1.8
2022-09-27T11:58:50.227Z,1.8
2022-09-27T11:59:58.613Z,1.8
2022-09-27T12:01:07.240Z,1.3
2022-09-27T12:02:15.724Z,1.3
2022-09-27T12:03:24.086Z,1.3
2022-09-27T12:04:32.697Z,1.3
2022-09-27T12:05:41.159Z,1.3
2022-09-27T12:06:49.543Z,1.3
2022-09-27T12:07:58.159Z,1.5
2022-09-27T12:09:06.548Z,1.5
2022-09-27T12:10:14.984Z,1.5
2022-09-27T12:11:23.598Z,1
2022-09-27T12:12:32.031Z,1
2022-09-27T12:13:40.431Z,1
2022-09-27T12:14:49.040Z,1.1
2022-09-27T12:15:57.533Z,1.1
2022-09-27T12:17:05.909Z,1.1
2022-09-27T12:18:14.543Z,1
2022-09-27T12:19:22.923Z,1
2022-09-27T12:20:31.368Z,1
2022-09-27T12:21:40.039Z,1.1
2022-09-27T12:22:58.440Z,1.1
2022-09-27T12:23:56.788Z,1.1
2022-09-27T12:25:05.414Z,1.2
2022-09-27T12:26:13.814Z,1.2
2022-09-27T12:27:22.232Z,1.2
2022-09-27T12:28:30.828Z,1.3
2022-09-27T12:29:39.265Z,1.3
2022-09-27T12:30:47.646Z,1.3
2022-09-27T12:31:56.336Z,1.4
2022-09-27T12:33:04.711Z,1.4
2022-09-27T12:34:16.249Z,1.4
2022-09-27T12:35:21.689Z,1.4
2022-09-27T12:36:31.300Z,1.4
2022-09-27T12:37:38.545Z,1.4
2022-09-27T12:38:47.143Z,1.3
2022-09-27T12:39:55.575Z,1.3
2022-09-27T12:41:03.985Z,1.3
2022-09-27T12:42:12.624Z,1.5
2022-09-27T12:43:21.030Z,1.5
2022-09-27T12:44:29.442Z,1.5
2022-09-27T12:45:38.060Z,1.3
2022-09-27T12:46:46.870Z,1.3
2022-09-27T12:47:55.512Z,1.3
2022-09-27T12:49:04.137Z,1.1
2022-09-27T12:50:12.587Z,1.1
2022-09-27T12:51:20.954Z,1.1
2022-09-27T12:52:29.634Z,1.3
2022-09-27T12:53:38.055Z,1.3
2022-09-27T12:54:46.495Z,1.3
2022-09-27T12:55:55.077Z,1.7
2022-09-27T12:57:03.535Z,1.7
2022-09-27T12:58:11.917Z,1.7
2022-09-27T12:59:20.546Z,1.9
2022-09-27T13:00:28.999Z,1.9
2022-09-27T13:01:37.450Z,1.9
2022-09-27T13:03:04.287Z,1.2
2022-09-27T13:03:54.401Z,1.2
2022-09-27T13:05:02.986Z,1.2
2022-09-27T13:06:11.585Z,1.2
2022-09-27T13:07:20.222Z,1.2
2022-09-27T13:08:29.308Z,1.2
2022-09-27T13:09:38.601Z,1.4
2022-09-27T13:10:46.976Z,1.4
2022-09-27T13:11:55.410Z,1.4
2022-09-27T13:13:04.048Z,1.9
2022-09-27T13:14:12.475Z,1.9
2022-09-27T13:15:20.854Z,1.9
2022-09-27T13:16:29.479Z,1.3
2022-09-27T13:17:37.865Z,1.3
2022-09-27T13:18:46.290Z,1.3
2022-09-27T13:19:54.913Z,1.8
2022-09-27T13:21:03.321Z,1.8
2022-09-27T13:22:11.781Z,1.8
2022-09-27T13:23:20.347Z,1.1
2022-09-27T13:24:28.757Z,1.1
2022-09-27T13:25:37.198Z,1.1
2022-09-27T13:26:45.789Z,1.4
2022-09-27T13:27:54.228Z,1.4
2022-09-27T13:29:02.689Z,1.4
2022-09-27T13:30:11.252Z,1.2
2022-09-27T13:31:19.694Z,1.2
2022-09-27T13:32:28.064Z,1.2
2022-09-27T13:33:36.668Z,1.6
2022-09-27T13:34:45.086Z,1.6
2022-09-27T13:35:53.481Z,1.6
2022-09-27T13:37:02.092Z,1.3
2022-09-27T13:38:10.525Z,1.3
2022-09-27T13:39:18.967Z,1.3
2022-09-27T13:40:27.609Z,1.7
2022-09-27T13:41:40.834Z,1.7
2022-09-27T13:42:51.783Z,1.7
2022-09-27T13:43:59.908Z,1.5
2022-09-27T13:45:08.329Z,1.5
2022-09-27T13:46:16.838Z,1.5
2022-09-27T13:47:25.523Z,1.6
2022-09-27T13:48:33.946Z,1.6
2022-09-27T13:49:42.439Z,1.6
2022-09-27T13:50:50.968Z,1.7
2022-09-27T13:51:59.350Z,1.7
2022-09-27T13:53:07.766Z,1.7
2022-09-27T13:54:16.422Z,1.6
2022-09-27T13:55:24.816Z,1.6
2022-09-27T13:56:33.215Z,1.6
2022-09-27T13:57:41.844Z,2.4
2022-09-27T13:58:50.267Z,2.4
2022-09-27T13:59:58.664Z,2.4
2022-09-27T14:01:07.315Z,1.9
2022-09-27T14:02:15.703Z,1.9
2022-09-27T14:03:24.082Z,1.9
2022-09-27T14:04:32.722Z,1.6
2022-09-27T14:05:41.164Z,1.6
2022-09-27T14:06:49.599Z,1.6
2022-09-27T14:07:58.171Z,2.1
2022-09-27T14:09:06.583Z,2.1
2022-09-27T14:10:14.998Z,2.1
2022-09-27T14:11:23.648Z,2
2022-09-27T14:12:32.048Z,2
2022-09-27T14:13:40.491Z,2
2022-09-27T14:14:49.107Z,1.8
2022-09-27T14:15:57.585Z,1.8
2022-09-27T14:17:09.171Z,1.8
2022-09-27T14:18:14.563Z,1.9
2022-09-27T14:19:22.954Z,1.9
2022-09-27T14:20:31.375Z,1.9
2022-09-27T14:21:39.980Z,1.5
2022-09-27T14:22:48.451Z,1.5
2022-09-27T14:23:56.830Z,1.5
2022-09-27T14:25:05.444Z,1.3
2022-09-27T14:26:13.959Z,1.3
2022-09-27T14:27:22.354Z,1.3
2022-09-27T14:28:30.988Z,1.3
2022-09-27T15:02:37.696Z,0
2022-09-27T15:03:46.153Z,0
2022-09-27T15:04:54.452Z,0
2022-09-27T15:06:02.959Z,1.2
2022-09-27T15:07:11.328Z,1.2
2022-09-27T15:08:19.747Z,1.2
2022-09-27T15:09:32.299Z,1.1
2022-09-27T15:10:36.709Z,1.1
2022-09-27T15:11:45.096Z,1.1
2022-09-27T15:12:53.661Z,1.3
2022-09-27T15:14:02.069Z,1.3
2022-09-27T15:15:10.458Z,1.3
2022-09-27T15:16:19.080Z,0.9
2022-09-27T15:17:27.401Z,0.9
2022-09-27T15:18:35.797Z,0.9
2022-09-27T15:19:44.375Z,0.9
2022-09-27T15:20:52.747Z,0.9
2022-09-27T15:22:01.139Z,0.9
2022-09-27T15:23:09.719Z,0.8
2022-09-27T15:24:18.081Z,0.8
2022-09-27T15:25:26.509Z,0.8
2022-09-27T15:26:35.072Z,0.8
2022-09-27T15:27:43.471Z,0.8
2022-09-27T15:28:51.824Z,0.8
2022-09-27T15:30:00.439Z,0.6
2022-09-27T15:31:08.870Z,0.6
2022-09-27T15:32:17.183Z,0.6
2022-09-27T15:33:25.781Z,0.7
2022-09-27T15:34:34.178Z,0.7
2022-09-27T15:35:42.556Z,0.7
2022-09-27T15:36:51.114Z,0.6
2022-09-27T15:37:59.482Z,0.6
2022-09-27T15:39:07.836Z,0.6
2022-09-27T15:40:16.510Z,0.8
2022-09-27T15:41:24.829Z,0.8
2022-09-27T15:42:33.133Z,0.8
2022-09-27T15:43:42.250Z,0.8
2022-09-27T15:44:50.907Z,0.8
2022-09-27T15:45:59.305Z,0.8
2022-09-27T15:47:08.491Z,0.7
2022-09-27T15:48:16.871Z,0.7
2022-09-27T15:49:25.278Z,0.7
2022-09-27T15:50:34.019Z,0.7
2022-09-27T15:51:42.263Z,0.7
2022-09-27T15:52:50.648Z,0.7
2022-09-27T15:53:59.200Z,0.7
2022-09-27T15:55:07.601Z,0.7
2022-09-27T15:56:15.968Z,0.7
2022-09-27T15:57:24.591Z,2.9
2022-09-27T15:58:32.979Z,2.9
2022-09-27T15:59:41.408Z,2.9
2022-09-27T16:00:50.130Z,6.9
2022-09-27T16:01:58.547Z,6.9
2022-09-27T16:03:06.862Z,6.9
2022-09-27T16:04:15.468Z,1.6
2022-09-27T16:05:23.894Z,1.6
2022-09-27T16:06:32.329Z,1.6
2022-09-27T16:07:40.923Z,1.9
2022-09-27T16:08:49.324Z,1.9
2022-09-27T16:09:57.776Z,1.9
2022-09-27T16:11:06.374Z,1.7
2022-09-27T16:12:14.804Z,1.7
2022-09-27T16:13:23.220Z,1.7
2022-09-27T16:14:31.824Z,1.6
2022-09-27T16:15:40.260Z,1.6
2022-09-27T16:16:48.665Z,1.6
2022-09-27T16:17:57.267Z,3.4
2022-09-27T16:19:05.676Z,3.4